Time;durP1;ratioP1;P1;durP2;ratioP2;P2;SDS_P1;SDS_P2;PMS_P1;PMS_P2;Temp;Humidity;BMP_temperature;BMP_pressure;BME280_temperature;BME280_humidity;BME280_pressure;Samples;Min_cycle;Max_cycle;Signal;HPM_P1;HPM_P2
2023/08/28 00:01:58;;;;;;;1.80;1.70;;;22.30;62.30;23.10;100400.00;;;;5011686;28;20228;-55
2023/08/28 00:04:24;;;;;;;2.00;1.80;;;22.30;62.20;23.10;100399.00;;;;5017804;28;20250;-56
2023/08/28 00:06:51;;;;;;;1.70;1.60;;;22.20;62.20;23.10;100405.00;;;;5011839;28;20198;-56
2023/08/28 00:09:17;;;;;;;1.80;1.70;;;22.20;62.20;23.10;100404.00;;;;5030926;28;20763;-56
2023/08/28 00:11:43;;;;;;;1.90;1.80;;;22.20;62.20;23.10;100387.00;;;;5031307;28;20245;-54
2023/08/28 00:14:08;;;;;;;1.80;1.70;;;22.20;62.20;23.10;100404.00;;;;5031446;28;20207;-55
2023/08/28 00:16:35;;;;;;;1.90;1.80;;;22.20;62.20;23.10;100401.00;;;;5031185;28;20233;-55
2023/08/28 00:19:00;;;;;;;1.80;1.70;;;22.20;62.20;23.00;100397.00;;;;5013236;28;20170;-55
2023/08/28 00:21:26;;;;;;;2.53;1.80;;;22.10;62.10;23.00;100387.00;;;;5022936;28;20237;-56
2023/08/28 00:23:52;;;;;;;1.70;1.60;;;22.10;62.10;23.00;100390.00;;;;5031193;28;20245;-56
2023/08/28 00:26:19;;;;;;;1.80;1.70;;;22.10;62.10;23.00;100384.00;;;;5031232;28;20680;-56
2023/08/28 00:28:44;;;;;;;1.80;1.70;;;22.10;62.90;23.00;100390.00;;;;5020965;28;20206;-55
2023/08/28 00:31:10;;;;;;;2.63;1.80;;;22.10;62.20;23.00;100400.00;;;;5013322;28;20235;-55
2023/08/28 00:33:36;;;;;;;2.03;1.80;;;22.10;62.20;22.90;100404.00;;;;5013267;28;20238;-56
2023/08/28 00:36:01;;;;;;;1.80;1.70;;;22.10;62.20;22.90;100397.00;;;;5030792;28;20202;-56
2023/08/28 00:38:27;;;;;;;1.70;1.60;;;22.00;62.10;22.90;100402.00;;;;5013042;28;20214;-55
2023/08/28 00:40:53;;;;;;;1.77;1.67;;;22.10;62.20;22.90;100400.00;;;;5030748;28;20305;-55
2023/08/28 00:43:19;;;;;;;1.70;1.60;;;22.10;62.10;22.90;100396.00;;;;5026559;28;20176;-55
2023/08/28 00:45:45;;;;;;;2.93;1.70;;;22.00;62.90;22.90;100404.00;;;;5027449;28;20187;-61
2023/08/28 00:48:12;;;;;;;1.80;1.63;;;22.00;62.00;22.80;100397.00;;;;5021531;28;20186;-56
2023/08/28 00:50:38;;;;;;;1.63;1.53;;;22.00;61.90;22.80;100397.00;;;;5030071;28;20211;-56
2023/08/28 00:53:04;;;;;;;5.00;1.80;;;22.00;62.10;22.80;100393.00;;;;5031411;28;20234;-56
2023/08/28 00:55:30;;;;;;;2.07;1.70;;;21.90;62.00;22.80;100389.00;;;;5005052;28;20197;-56
2023/08/28 00:57:56;;;;;;;1.80;1.40;;;22.00;62.00;22.80;100396.00;;;;5013184;28;20617;-55
2023/08/28 01:00:22;;;;;;;1.60;1.50;;;21.90;61.90;22.70;100388.00;;;;5030468;28;20199;-54
2023/08/28 01:02:48;;;;;;;1.70;1.60;;;21.90;61.90;22.70;100380.00;;;;5039353;28;20179;-62
2023/08/28 01:05:15;;;;;;;1.80;1.70;;;21.90;62.00;22.70;100378.00;;;;5028711;28;20191;-56
2023/08/28 01:07:56;;;;;;;2.43;1.67;;;21.90;61.90;22.70;100376.00;;;;5033378;28;20675;-55
2023/08/28 01:10:34;;;;;;;2.13;1.63;;;21.90;61.90;22.70;100385.00;;;;5003719;28;20207;-55
2023/08/28 01:13:15;;;;;;;1.70;1.60;;;21.90;61.70;22.70;100377.00;;;;5011340;28;20183;-55
2023/08/28 01:15:41;;;;;;;1.47;1.37;;;21.90;61.90;22.70;100383.00;;;;5012405;28;20194;-55
2023/08/28 01:18:07;;;;;;;2.33;1.60;;;21.90;61.90;22.70;100383.00;;;;5004273;28;20225;-55
2023/08/28 01:20:33;;;;;;;2.00;1.80;;;21.80;61.80;22.60;100381.00;;;;5009734;28;20226;-56
2023/08/28 01:23:04;;;;;;;1.60;1.50;;;21.80;61.80;22.60;100378.00;;;;5027016;28;20739;-56
2023/08/28 01:25:30;;;;;;;1.70;1.60;;;21.80;61.80;22.60;100370.00;;;;5030559;28;20186;-56
2023/08/28 01:27:57;;;;;;;1.80;1.70;;;21.80;61.90;22.60;100380.00;;;;5012202;28;20635;-55
2023/08/28 01:30:23;;;;;;;2.07;1.50;;;21.90;61.90;22.60;100384.00;;;;5012169;28;20290;-56
2023/08/28 01:32:48;;;;;;;1.60;1.50;;;21.80;61.80;22.50;100374.00;;;;5030156;28;20250;-56
2023/08/28 01:35:25;;;;;;;1.80;1.70;;;21.80;61.70;22.50;100382.00;;;;5012442;28;20198;-55
2023/08/28 01:38:16;;;;;;;1.83;1.60;;;21.80;61.70;22.50;100370.00;;;;5030259;28;20185;-56
2023/08/28 01:41:01;;;;;;;2.80;1.53;;;21.70;61.70;22.50;100306.00;;;;5013273;28;20248;-56
2023/08/28 01:43:42;;;;;;;1.70;1.60;;;21.80;61.90;22.40;100355.00;;;;5013976;28;20179;-56
2023/08/28 01:46:08;;;;;;;1.80;1.60;;;21.70;61.70;22.40;100357.00;;;;5013690;28;20178;-56
2023/08/28 01:48:35;;;;;;;1.77;1.67;;;21.70;61.60;22.40;100366.00;;;;5011830;28;20502;-56
2023/08/28 01:51:01;;;;;;;2.03;1.80;;;21.70;61.50;22.30;100372.00;;;;5029435;28;20233;-55
2023/08/28 01:53:26;;;;;;;1.80;1.70;;;21.70;61.70;22.30;100365.00;;;;5029564;28;20600;-55
2023/08/28 01:56:07;;;;;;;1.73;1.63;;;21.70;61.50;22.30;100367.00;;;;5011615;28;20247;-55
2023/08/28 01:58:46;;;;;;;1.90;1.80;;;21.70;61.60;22.30;100355.00;;;;5029263;28;20193;-55
2023/08/28 02:01:12;;;;;;;1.80;1.70;;;21.60;61.30;22.20;100346.00;;;;5012673;28;20704;-56
2023/08/28 02:03:38;;;;;;;2.00;1.73;;;21.70;61.50;22.20;100354.00;;;;5029271;28;20179;-56
2023/08/28 02:06:07;;;;;;;1.83;1.60;;;21.70;61.50;22.20;100358.00;;;;5028935;28;20179;-60
2023/08/28 02:08:33;;;;;;;1.70;1.60;;;21.60;61.50;22.20;100366.00;;;;5029070;28;20178;-56
2023/08/28 02:10:59;;;;;;;1.83;1.73;;;21.60;61.50;22.20;100365.00;;;;5029102;28;20210;-56
2023/08/28 02:13:25;;;;;;;1.87;1.50;;;21.60;61.60;22.20;100376.00;;;;5029618;28;20270;-56
2023/08/28 02:15:51;;;;;;;1.80;1.70;;;21.60;61.70;22.20;100376.00;;;;5033791;28;20195;-59
2023/08/28 02:18:17;;;;;;;1.60;1.50;;;21.60;61.70;22.20;100362.00;;;;5029619;28;20178;-55
2023/08/28 02:20:44;;;;;;;1.43;1.33;;;21.50;61.70;22.20;100378.00;;;;5020848;28;20200;-56
2023/08/28 02:23:10;;;;;;;2.07;1.90;;;21.50;61.60;22.20;100375.00;;;;5028746;28;20186;-56
2023/08/28 02:25:39;;;;;;;1.60;1.50;;;21.50;61.50;22.20;100363.00;;;;5029222;28;20225;-56
2023/08/28 02:28:05;;;;;;;1.87;1.77;;;21.50;61.60;22.10;100362.00;;;;5011844;28;20895;-55
2023/08/28 02:30:31;;;;;;;1.70;1.60;;;21.50;61.60;22.10;100365.00;;;;5028961;28;20201;-55
2023/08/28 02:32:56;;;;;;;1.80;1.70;;;21.40;61.50;22.10;100371.00;;;;5029108;28;20552;-56
2023/08/28 02:35:22;;;;;;;1.70;1.60;;;21.40;61.50;22.10;100379.00;;;;5028694;28;20190;-55
2023/08/28 02:37:48;;;;;;;1.60;1.50;;;21.50;61.50;22.10;100382.00;;;;5028666;28;20669;-55
2023/08/28 02:40:14;;;;;;;1.80;1.70;;;21.50;61.50;22.10;100387.00;;;;5028416;28;20214;-55
2023/08/28 02:42:39;;;;;;;1.80;1.70;;;21.40;61.40;22.00;100390.00;;;;5028604;28;20175;-55
2023/08/28 02:45:06;;;;;;;3.27;1.73;;;21.40;61.40;22.00;100403.00;;;;5012140;28;20190;-56
2023/08/28 02:47:31;;;;;;;2.60;1.90;;;21.40;61.50;22.00;100401.00;;;;5028687;28;20183;-55
2023/08/28 02:49:57;;;;;;;2.67;1.80;;;21.40;61.70;22.00;100401.00;;;;5046471;28;20218;-56
2023/08/28 02:52:23;;;;;;;2.77;2.00;;;21.30;61.60;22.00;100395.00;;;;5035606;28;20179;-56
2023/08/28 02:54:49;;;;;;;2.60;2.00;;;21.40;61.70;22.00;100401.00;;;;5028631;28;20650;-56
2023/08/28 02:57:14;;;;;;;2.10;1.90;;;21.30;61.70;21.90;100402.00;;;;5028702;28;20213;-56
2023/08/28 02:59:40;;;;;;;2.00;1.80;;;21.20;61.70;21.90;100411.00;;;;5011283;28;20238;-55
2023/08/28 03:02:06;;;;;;;2.00;1.70;;;21.10;61.90;21.90;100416.00;;;;5022662;28;20186;-56
2023/08/28 03:04:34;;;;;;;2.33;1.93;;;21.10;62.30;21.80;100418.00;;;;5044160;28;20186;-55
2023/08/28 03:07:00;;;;;;;1.77;1.67;;;21.20;62.10;21.80;100409.00;;;;5036045;28;20662;-56
2023/08/28 03:09:26;;;;;;;1.90;1.80;;;21.20;62.10;21.80;100407.00;;;;5030064;28;20261;-56
2023/08/28 03:11:51;;;;;;;2.10;1.67;;;21.20;62.00;21.80;100412.00;;;;5029462;28;20183;-56
2023/08/28 03:14:17;;;;;;;1.93;1.73;;;21.10;62.00;21.80;100420.00;;;;5029948;28;20186;-55
2023/08/28 03:16:43;;;;;;;2.00;1.90;;;21.10;62.00;21.80;100413.00;;;;5029535;28;20202;-56
2023/08/28 03:19:09;;;;;;;3.00;1.90;;;21.10;61.90;21.80;100413.00;;;;5029387;28;20195;-56
2023/08/28 03:21:35;;;;;;;1.80;1.70;;;21.20;62.00;21.80;100411.00;;;;5021068;28;20179;-56
2023/08/28 03:24:00;;;;;;;2.00;1.90;;;21.20;62.00;21.80;100420.00;;;;5025418;28;20629;-54
2023/08/28 03:26:28;;;;;;;2.77;1.70;;;21.20;61.90;21.80;100419.00;;;;5032550;28;20183;-55
2023/08/28 03:28:54;;;;;;;2.83;1.97;;;21.20;62.00;21.80;100422.00;;;;5029028;28;20848;-55
2023/08/28 03:31:20;;;;;;;9.37;2.20;;;21.20;62.50;21.80;100413.00;;;;5028942;28;20213;-55
2023/08/28 03:33:46;;;;;;;3.57;2.00;;;21.20;62.50;21.80;100427.00;;;;5029143;28;20175;-56
2023/08/28 03:36:12;;;;;;;4.63;1.90;;;21.10;62.40;21.80;100423.00;;;;5029023;28;20209;-56
2023/08/28 03:38:38;;;;;;;2.93;1.90;;;21.20;62.50;21.70;100418.00;;;;5011276;28;20186;-56
2023/08/28 03:41:03;;;;;;;5.40;1.93;;;21.20;62.40;21.70;100412.00;;;;5028967;28;20210;-55
2023/08/28 03:43:29;;;;;;;2.67;2.10;;;21.20;62.30;21.70;100417.00;;;;5029377;28;20287;-56
2023/08/28 03:45:55;;;;;;;4.53;2.00;;;21.10;62.10;21.70;100414.00;;;;5029076;28;20679;-56
2023/08/28 03:48:20;;;;;;;4.00;2.10;;;21.10;62.20;21.70;100418.00;;;;5028979;28;20198;-56
2023/08/28 03:50:46;;;;;;;5.93;2.27;;;21.10;62.20;21.70;100417.00;;;;5029240;28;20203;-55
2023/08/28 03:53:12;;;;;;;2.93;2.10;;;21.10;62.10;21.70;100416.00;;;;5021941;28;20186;-55
2023/08/28 03:55:38;;;;;;;3.33;2.20;;;21.10;62.30;21.60;100406.00;;;;5018968;28;20576;-56
2023/08/28 03:58:03;;;;;;;2.97;2.10;;;21.10;62.20;21.70;100408.00;;;;5019653;28;20176;-56
2023/08/28 04:00:31;;;;;;;3.13;1.83;;;21.10;62.30;21.60;100408.00;;;;5013260;28;20202;-56
2023/08/28 04:02:57;;;;;;;3.50;2.13;;;21.10;62.30;21.70;100393.00;;;;5017693;28;20544;-55
2023/08/28 04:05:22;;;;;;;2.40;2.10;;;21.10;62.30;21.70;100399.00;;;;5024458;28;20183;-55
2023/08/28 04:07:49;;;;;;;2.53;2.00;;;21.10;62.40;21.70;100389.00;;;;5000277;28;20557;-56
2023/08/28 04:10:15;;;;;;;2.37;2.00;;;21.00;62.30;21.60;100392.00;;;;5008592;28;20230;-56
2023/08/28 04:12:41;;;;;;;2.97;2.03;;;21.00;62.30;21.60;100383.00;;;;5028850;28;20179;-55
2023/08/28 04:15:10;;;;;;;2.80;1.80;;;21.00;62.30;21.60;100386.00;;;;5028568;28;20193;-56
2023/08/28 04:17:36;;;;;;;2.13;1.90;;;21.00;62.30;21.60;100381.00;;;;5011947;28;20215;-55
2023/08/28 04:20:14;;;;;;;3.23;2.00;;;21.00;62.30;21.60;100393.00;;;;5008406;28;20203;-56
2023/08/28 04:22:43;;;;;;;2.40;1.90;;;20.90;62.20;21.60;100356.00;;;;5028434;28;20193;-56
2023/08/28 04:25:10;;;;;;;2.53;1.90;;;21.00;62.30;21.60;100378.00;;;;5010977;28;20218;-55
2023/08/28 04:27:36;;;;;;;3.03;2.07;;;21.00;62.30;21.50;100378.00;;;;5027949;28;20183;-56
2023/08/28 04:30:03;;;;;;;2.77;1.83;;;20.90;62.20;21.50;100388.00;;;;5024042;28;20191;-56
2023/08/28 04:32:29;;;;;;;2.57;2.00;;;20.90;62.20;21.50;100393.00;;;;5020716;28;20190;-55
2023/08/28 04:34:54;;;;;;;3.07;1.80;;;20.90;62.20;21.50;100403.00;;;;5028431;28;20183;-56
2023/08/28 04:37:22;;;;;;;1.93;1.77;;;20.90;62.30;21.50;100393.00;;;;5032017;28;20555;-56
2023/08/28 04:39:47;;;;;;;1.93;1.70;;;20.90;62.40;21.50;100395.00;;;;5033166;28;20203;-55
2023/08/28 04:42:14;;;;;;;1.80;1.70;;;20.90;62.40;21.50;100397.00;;;;5031278;28;20187;-55
2023/08/28 04:44:40;;;;;;;3.10;1.93;;;20.80;62.30;21.50;100399.00;;;;5031855;28;20175;-56
2023/08/28 04:47:06;;;;;;;2.93;1.97;;;20.90;62.30;21.50;100396.00;;;;5031833;28;20685;-55
2023/08/28 04:49:31;;;;;;;2.43;1.97;;;20.90;62.50;21.50;100394.00;;;;5044126;28;20203;-59
2023/08/28 04:51:57;;;;;;;2.20;1.57;;;20.80;62.50;21.40;100391.00;;;;5043544;28;20828;-56
2023/08/28 04:54:23;;;;;;;3.20;1.80;;;20.90;62.60;21.40;100386.00;;;;5026223;28;20194;-56
2023/08/28 04:56:49;;;;;;;3.13;1.77;;;20.80;62.60;21.40;100387.00;;;;5025883;28;20195;-55
2023/08/28 04:59:14;;;;;;;1.90;1.80;;;20.80;62.70;21.40;100388.00;;;;5032340;28;20218;-57
2023/08/28 05:01:40;;;;;;;2.43;1.80;;;20.80;62.70;21.40;100390.00;;;;5031972;28;20197;-55
2023/08/28 05:04:06;;;;;;;2.43;1.90;;;20.80;62.80;21.30;100377.00;;;;5045635;28;20242;-56
2023/08/28 05:06:32;;;;;;;3.73;1.83;;;20.80;62.80;21.30;100384.00;;;;5036861;28;20764;-56
2023/08/28 05:08:58;;;;;;;3.10;1.87;;;20.80;62.70;21.30;100395.00;;;;5031452;28;20182;-56
2023/08/28 05:11:24;;;;;;;2.23;2.03;;;20.80;62.70;21.30;100391.00;;;;5020970;28;20183;-56
2023/08/28 05:13:49;;;;;;;2.70;1.93;;;20.70;62.80;21.30;100388.00;;;;5031183;28;20185;-56
2023/08/28 05:16:15;;;;;;;2.83;2.30;;;20.80;63.00;21.30;100389.00;;;;5023984;28;20246;-55
2023/08/28 05:18:41;;;;;;;3.40;2.20;;;20.70;62.90;21.30;100403.00;;;;5030817;28;20187;-57
2023/08/28 05:21:07;;;;;;;3.40;2.10;;;20.70;63.00;21.30;100400.00;;;;5028366;28;20214;-58
2023/08/28 05:23:32;;;;;;;2.73;2.20;;;20.60;62.90;21.30;100391.00;;;;5026726;28;20180;-55
2023/08/28 05:25:58;;;;;;;3.23;2.30;;;20.70;62.90;21.30;100392.00;;;;5028964;28;20191;-55
2023/08/28 05:28:24;;;;;;;2.43;2.10;;;20.70;62.80;21.30;100403.00;;;;5024822;28;20221;-55
2023/08/28 05:30:49;;;;;;;3.03;2.00;;;20.60;62.80;21.30;100397.00;;;;5022097;28;20249;-54
2023/08/28 05:33:15;;;;;;;2.50;2.20;;;20.70;62.90;21.30;100393.00;;;;5030629;28;20182;-54
2023/08/28 05:35:41;;;;;;;2.40;1.90;;;20.70;62.90;21.30;100409.00;;;;5030605;28;20193;-55
2023/08/28 05:38:07;;;;;;;3.27;2.00;;;20.70;62.90;21.30;100401.00;;;;5027796;28;20186;-56
2023/08/28 05:40:33;;;;;;;2.43;2.07;;;20.60;62.80;21.30;100393.00;;;;5023654;28;20199;-57
2023/08/28 05:42:59;;;;;;;3.07;1.93;;;20.60;62.80;21.30;100413.00;;;;5010919;28;20184;-56
2023/08/28 05:45:25;;;;;;;4.10;2.03;;;20.60;62.80;21.30;100420.00;;;;5030087;28;20196;-55
2023/08/28 05:47:51;;;;;;;2.60;2.20;;;20.60;62.80;21.30;100411.00;;;;5030080;28;20187;-55
2023/08/28 05:50:18;;;;;;;3.20;2.07;;;20.50;62.70;21.20;100425.00;;;;5034083;28;20210;-55
2023/08/28 05:52:45;;;;;;;4.20;2.40;;;20.50;62.70;21.20;100420.00;;;;5035413;28;20195;-56
2023/08/28 05:55:10;;;;;;;2.30;2.10;;;20.50;62.70;21.20;100421.00;;;;5030327;28;20194;-56
2023/08/28 05:57:36;;;;;;;3.37;2.20;;;20.40;62.50;21.20;100418.00;;;;5030680;28;20206;-55
2023/08/28 06:00:03;;;;;;;3.17;2.23;;;20.40;62.50;21.10;100412.00;;;;5029473;28;20669;-55
2023/08/28 06:02:29;;;;;;;5.27;2.30;;;20.30;62.50;21.10;100421.00;;;;5029813;28;20661;-55
2023/08/28 06:04:55;;;;;;;9.50;2.93;;;20.30;62.50;21.10;100413.00;;;;5023062;28;20175;-55
2023/08/28 06:07:21;;;;;;;4.67;2.63;;;20.30;62.50;21.10;100417.00;;;;5030233;28;20765;-55
2023/08/28 06:09:46;;;;;;;7.03;2.67;;;20.30;62.50;21.10;100410.00;;;;5026541;28;20207;-55
2023/08/28 06:12:12;;;;;;;9.23;2.63;;;20.30;62.80;21.10;100403.00;;;;5029801;28;20241;-55
2023/08/28 06:14:38;;;;;;;7.87;2.80;;;20.30;62.80;21.00;100404.00;;;;5030017;28;20191;-55
2023/08/28 06:17:04;;;;;;;6.40;2.63;;;20.30;63.10;21.00;100402.00;;;;5029788;28;20681;-55
2023/08/28 06:19:29;;;;;;;6.97;2.30;;;20.40;62.90;21.00;100404.00;;;;5029560;28;20199;-55
2023/08/28 06:21:55;;;;;;;4.43;2.30;;;20.30;62.80;21.00;100410.00;;;;5027301;28;20253;-56
2023/08/28 06:24:21;;;;;;;5.10;2.27;;;20.30;62.90;21.00;100404.00;;;;5025695;28;20195;-55
2023/08/28 06:26:47;;;;;;;2.93;2.00;;;20.30;62.90;21.00;100397.00;;;;5029853;28;20182;-54
2023/08/28 06:29:13;;;;;;;2.73;2.00;;;20.30;62.90;21.00;100397.00;;;;5012107;28;20693;-54
2023/08/28 06:31:38;;;;;;;2.13;1.90;;;20.20;62.90;21.00;100401.00;;;;5011934;28;20190;-55
2023/08/28 06:34:04;;;;;;;2.30;2.10;;;20.20;62.90;21.00;100395.00;;;;5028768;28;20243;-55
2023/08/28 06:36:30;;;;;;;3.60;2.43;;;20.20;63.00;21.00;100391.00;;;;5030013;28;20500;-55
2023/08/28 06:38:56;;;;;;;2.23;2.03;;;20.20;63.00;20.90;100393.00;;;;5029414;28;20337;-55
2023/08/28 06:41:22;;;;;;;2.50;2.20;;;20.20;63.10;20.90;100391.00;;;;5020693;28;20242;-55
2023/08/28 06:43:48;;;;;;;2.83;1.90;;;20.20;63.00;20.90;100394.00;;;;5029694;28;20611;-55
2023/08/28 06:46:15;;;;;;;2.97;2.00;;;20.20;63.10;20.90;100393.00;;;;5024196;28;20175;-55
2023/08/28 06:48:43;;;;;;;2.20;2.00;;;20.20;63.10;20.90;100402.00;;;;5034180;28;20176;-55
2023/08/28 06:51:10;;;;;;;3.10;1.90;;;20.20;63.00;20.90;100395.00;;;;5048616;28;20207;-55
2023/08/28 06:53:36;;;;;;;6.57;2.10;;;20.20;63.10;20.90;100395.00;;;;5029882;28;20189;-56
2023/08/28 06:56:03;;;;;;;2.87;2.10;;;20.20;63.30;20.90;100402.00;;;;5030019;28;20257;-56
2023/08/28 06:58:29;;;;;;;3.73;2.20;;;20.20;63.50;20.90;100401.00;;;;5010553;28;20175;-55
2023/08/28 07:00:55;;;;;;;3.77;2.23;;;20.20;63.50;20.90;100397.00;;;;5030142;28;20216;-54
2023/08/28 07:03:21;;;;;;;4.67;2.10;;;20.20;63.70;20.90;100401.00;;;;5034238;28;20174;-55
2023/08/28 07:05:46;;;;;;;2.87;1.97;;;20.20;63.60;20.90;100409.00;;;;5035872;28;20545;-56
2023/08/28 07:08:12;;;;;;;2.97;2.20;;;20.20;63.50;20.90;100414.00;;;;5031512;28;20176;-56
2023/08/28 07:10:38;;;;;;;2.47;2.10;;;20.20;63.60;20.90;100411.00;;;;5028829;28;20265;-54
2023/08/28 07:13:04;;;;;;;2.17;1.97;;;20.10;63.50;20.90;100408.00;;;;5029494;28;20175;-54
2023/08/28 07:15:29;;;;;;;2.70;2.00;;;20.10;63.50;20.80;100401.00;;;;5032604;28;20205;-55
2023/08/28 07:17:55;;;;;;;2.00;1.80;;;20.10;63.60;20.80;100415.00;;;;5035710;28;20225;-56
2023/08/28 07:20:22;;;;;;;2.30;2.07;;;20.10;63.70;20.80;100400.00;;;;5028175;28;20211;-54
2023/08/28 07:22:48;;;;;;;2.67;2.47;;;20.10;63.60;20.80;100410.00;;;;5028597;28;20186;-54
2023/08/28 07:25:15;;;;;;;2.60;2.40;;;20.10;63.70;20.80;100405.00;;;;5028992;28;20185;-55
2023/08/28 07:27:41;;;;;;;2.67;2.30;;;20.00;63.70;20.80;100410.00;;;;5029296;28;20216;-54
2023/08/28 07:30:07;;;;;;;2.40;2.20;;;20.10;64.00;20.80;100406.00;;;;5010570;28;20804;-55
2023/08/28 07:32:33;;;;;;;2.50;2.30;;;20.00;64.00;20.80;100410.00;;;;5029287;28;20185;-55
2023/08/28 07:35:01;;;;;;;3.37;2.40;;;20.00;64.50;20.80;100410.00;;;;5021284;28;20171;-54
2023/08/28 07:37:30;;;;;;;3.40;2.53;;;20.00;64.40;20.80;100410.00;;;;5005557;28;20201;-55
2023/08/28 07:39:56;;;;;;;4.03;2.20;;;20.10;64.60;20.80;100409.00;;;;5020596;28;20200;-56
2023/08/28 07:42:22;;;;;;;7.17;2.30;;;20.10;64.50;20.80;100410.00;;;;5019496;28;20197;-56
2023/08/28 07:44:48;;;;;;;5.07;2.47;;;20.10;64.50;20.80;100405.00;;;;5011396;28;20197;-55
2023/08/28 07:47:13;;;;;;;3.47;2.70;;;20.10;64.60;20.80;100397.00;;;;5029137;28;20186;-55
2023/08/28 07:49:41;;;;;;;3.53;2.80;;;20.10;64.50;20.80;100400.00;;;;5028182;28;20696;-54
2023/08/28 07:52:07;;;;;;;4.70;2.50;;;20.00;64.50;20.80;100400.00;;;;5011470;28;20189;-55
2023/08/28 07:54:33;;;;;;;2.77;2.23;;;20.00;64.70;20.80;100397.00;;;;5010153;28;20189;-55
2023/08/28 07:56:58;;;;;;;2.43;2.17;;;20.10;64.80;20.80;100397.00;;;;5018457;28;20684;-54
2023/08/28 07:59:24;;;;;;;2.80;2.60;;;20.10;64.90;20.80;100401.00;;;;5024107;28;20239;-55
2023/08/28 08:01:50;;;;;;;2.60;2.40;;;20.10;64.80;20.80;100406.00;;;;5018852;28;20221;-55
2023/08/28 08:04:15;;;;;;;3.13;2.83;;;20.10;65.00;20.80;100410.00;;;;5019970;28;20265;-55
2023/08/28 08:06:41;;;;;;;4.27;3.00;;;20.00;64.90;20.80;100407.00;;;;5028374;28;20843;-55
2023/08/28 08:09:07;;;;;;;3.13;2.83;;;20.00;65.10;20.80;100417.00;;;;5028537;28;20957;-54
2023/08/28 08:11:33;;;;;;;2.70;2.50;;;20.00;65.50;20.80;100409.00;;;;5031520;28;20235;-55
2023/08/28 08:13:58;;;;;;;2.53;2.30;;;20.00;65.40;20.80;100414.00;;;;5032118;28;20218;-55
2023/08/28 08:16:24;;;;;;;4.13;3.00;;;20.00;65.50;20.80;100425.00;;;;5032517;28;20209;-55
2023/08/28 08:18:50;;;;;;;4.70;3.23;;;20.00;65.40;20.80;100419.00;;;;5024437;28;20263;-55
2023/08/28 08:21:16;;;;;;;3.17;2.80;;;20.00;65.70;20.80;100425.00;;;;5020625;28;20198;-54
2023/08/28 08:23:42;;;;;;;6.53;3.10;;;20.00;65.70;20.80;100430.00;;;;5026664;28;20183;-55
2023/08/28 08:26:08;;;;;;;5.17;3.83;;;20.00;66.40;20.80;100434.00;;;;5026537;28;20197;-55
2023/08/28 08:28:34;;;;;;;4.60;4.20;;;20.00;65.90;20.80;100431.00;;;;5012740;28;20720;-55
2023/08/28 08:31:00;;;;;;;4.97;4.00;;;19.90;66.40;20.80;100430.00;;;;5021022;28;20200;-55
2023/08/28 08:33:25;;;;;;;3.83;3.53;;;20.00;66.70;20.80;100430.00;;;;5027233;28;20201;-55
2023/08/28 08:35:51;;;;;;;5.27;3.00;;;20.00;66.70;20.80;100434.00;;;;5015620;28;20754;-55
2023/08/28 08:38:17;;;;;;;4.63;3.20;;;20.00;66.70;20.80;100427.00;;;;5018800;28;20182;-56
2023/08/28 08:40:43;;;;;;;5.83;3.47;;;20.00;67.30;20.80;100430.00;;;;5028926;28;20201;-56
2023/08/28 08:43:08;;;;;;;5.10;3.37;;;20.00;67.30;20.80;100433.00;;;;5030890;28;20179;-56
2023/08/28 08:45:36;;;;;;;5.23;3.23;;;20.00;66.90;20.80;100433.00;;;;5019585;28;20675;-56
2023/08/28 08:48:03;;;;;;;3.90;3.30;;;20.00;67.10;20.80;100429.00;;;;5028533;28;20266;-56
2023/08/28 08:50:29;;;;;;;4.63;3.47;;;20.00;67.10;20.80;100444.00;;;;5022057;28;20261;-56
2023/08/28 08:52:58;;;;;;;5.77;3.40;;;20.00;66.70;20.80;100446.00;;;;5029755;28;20232;-58
2023/08/28 08:55:40;;;;;;;5.97;3.20;;;20.00;67.70;20.80;100440.00;;;;5032800;28;20194;-58
2023/08/28 08:58:08;;;;;;;6.50;3.07;;;20.00;68.00;20.70;100439.00;;;;5031920;28;20221;-57
2023/08/28 09:00:38;;;;;;;10.17;3.10;;;20.00;68.20;20.80;100427.00;;;;5014689;28;20214;-57
2023/08/28 09:03:05;;;;;;;4.10;2.87;;;20.10;68.40;20.50;100434.00;;;;5015537;28;20195;-57
2023/08/28 09:05:31;;;;;;;6.67;2.83;;;20.10;68.30;20.80;100434.00;;;;5038475;28;20167;-63
2023/08/28 09:07:59;;;;;;;9.20;2.90;;;20.10;68.20;20.80;100428.00;;;;5021002;28;20181;-59
2023/08/28 09:10:25;;;;;;;2.93;2.30;;;20.20;68.60;20.80;100425.00;;;;5023723;28;20234;-59
2023/08/28 09:12:51;;;;;;;4.13;2.60;;;20.20;68.20;20.80;100425.00;;;;5029329;28;20238;-58
2023/08/28 09:15:17;;;;;;;3.60;2.40;;;20.20;68.30;20.90;100427.00;;;;5022677;28;20176;-58
2023/08/28 09:17:43;;;;;;;4.10;2.27;;;20.20;68.70;20.90;100425.00;;;;5031969;28;20301;-58
2023/08/28 09:20:19;;;;;;;6.10;2.33;;;20.20;68.60;20.90;100407.00;;;;5028844;28;20337;-58
2023/08/28 09:22:53;;;;;;;5.87;2.87;;;20.20;68.50;20.90;100410.00;;;;5013202;28;20181;-59
2023/08/28 09:25:20;;;;;;;2.90;2.10;;;20.20;68.70;20.90;100407.00;;;;5023073;28;20236;-58
2023/08/28 09:27:51;;;;;;;4.50;2.17;;;20.20;68.80;20.90;100404.00;;;;5028101;28;20178;-57
2023/08/28 09:30:29;;;;;;;2.73;2.40;;;20.20;68.80;20.90;100396.00;;;;5031040;28;20451;-58
2023/08/28 09:33:07;;;;;;;4.97;2.67;;;20.20;68.80;21.00;100401.00;;;;5024306;28;20183;-58
2023/08/28 09:35:40;;;;;;;4.20;2.50;;;20.30;69.00;21.00;100394.00;;;;5026048;28;20729;-59
2023/08/28 09:38:06;;;;;;;4.27;2.40;;;20.30;69.10;21.00;100399.00;;;;5024049;28;20210;-58
2023/08/28 09:40:36;;;;;;;4.97;2.37;;;20.30;68.90;21.00;100383.00;;;;5030642;28;20206;-58
2023/08/28 09:43:15;;;;;;;2.80;2.10;;;20.30;69.20;21.00;100395.00;;;;5030997;28;20193;-58
2023/08/28 09:45:42;;;;;;;4.00;2.10;;;20.20;68.80;21.00;100393.00;;;;5030987;28;20480;-59
2023/08/28 09:48:08;;;;;;;4.70;2.40;;;20.20;68.90;21.00;100383.00;;;;5012446;28;20204;-58
2023/08/28 09:50:38;;;;;;;2.33;2.13;;;20.30;69.00;21.00;100378.00;;;;5025913;28;20203;-58
2023/08/28 09:53:14;;;;;;;2.43;2.20;;;20.30;69.00;21.00;100378.00;;;;5010612;28;20191;-59
2023/08/28 09:55:51;;;;;;;2.37;2.17;;;20.20;69.00;21.10;100385.00;;;;5032468;28;20182;-58
2023/08/28 09:58:18;;;;;;;2.93;2.27;;;20.30;69.00;21.10;100394.00;;;;5033761;28;20208;-58
2023/08/28 10:00:44;;;;;;;2.80;2.00;;;20.30;69.10;21.10;100381.00;;;;5031027;28;20218;-58
2023/08/28 10:03:13;;;;;;;2.20;2.00;;;20.30;69.30;21.10;100384.00;;;;5030871;28;20220;-63
2023/08/28 10:05:42;;;;;;;2.23;2.00;;;20.30;69.20;21.10;100387.00;;;;5007788;28;20251;-58
2023/08/28 10:08:09;;;;;;;2.10;1.90;;;20.30;69.20;21.10;100380.00;;;;5015043;28;20195;-58
2023/08/28 10:10:36;;;;;;;2.60;1.90;;;20.30;69.30;21.10;100369.00;;;;5019134;28;20198;-58
2023/08/28 10:13:06;;;;;;;3.50;2.10;;;20.30;69.40;21.10;100370.00;;;;5030285;28;20182;-58
2023/08/28 10:15:33;;;;;;;2.03;1.93;;;20.30;69.40;21.10;100380.00;;;;5030112;28;20278;-58
2023/08/28 10:18:07;;;;;;;2.80;1.90;;;20.30;69.30;21.20;100378.00;;;;5030207;28;20680;-59
2023/08/28 10:20:34;;;;;;;2.60;2.13;;;20.30;69.40;21.20;100374.00;;;;5028155;28;20226;-58
2023/08/28 10:23:00;;;;;;;2.63;1.93;;;20.30;69.50;21.10;100378.00;;;;5012730;28;20213;-57
2023/08/28 10:25:25;;;;;;;2.70;2.00;;;20.30;69.50;21.20;100377.00;;;;5029476;28;20206;-57
2023/08/28 10:27:52;;;;;;;2.27;2.07;;;20.30;69.30;21.20;100371.00;;;;5029789;28;20193;-58
2023/08/28 10:30:21;;;;;;;2.23;2.00;;;20.30;69.60;21.20;100305.00;;;;5026723;28;20576;-59
2023/08/28 10:32:47;;;;;;;2.30;2.10;;;20.40;69.60;21.20;100360.00;;;;5022372;28;20221;-57
2023/08/28 10:35:13;;;;;;;2.10;1.90;;;20.40;69.50;21.20;100374.00;;;;5011151;28;20186;-58
2023/08/28 10:37:38;;;;;;;2.10;1.90;;;20.40;69.60;21.20;100377.00;;;;5009254;28;20203;-59
2023/08/28 10:40:05;;;;;;;3.70;2.03;;;20.40;69.80;21.20;100375.00;;;;5026394;28;20206;-59
2023/08/28 10:42:31;;;;;;;2.07;1.80;;;20.40;70.00;21.20;100383.00;;;;5012114;28;20189;-59
2023/08/28 10:44:57;;;;;;;2.67;2.00;;;20.40;69.80;21.30;100387.00;;;;5011994;28;20310;-59
2023/08/28 10:47:22;;;;;;;2.20;1.77;;;20.40;70.00;21.30;100381.00;;;;5009143;28;20682;-58